createdAt,value
2018-11-29T00:00:32.867Z,6.60
2018-11-29T00:03:01.429Z,6.65
2018-11-29T00:05:30.038Z,6.64
2018-11-29T00:07:58.519Z,6.69
2018-11-29T00:10:26.970Z,6.71
2018-11-29T00:12:55.467Z,6.68
2018-11-29T00:15:24.251Z,6.68
2018-11-29T00:17:52.763Z,6.66
2018-11-29T00:20:21.470Z,6.68
2018-11-29T00:22:50.905Z,6.71
2018-11-29T00:25:19.984Z,6.76
2018-11-29T00:27:49.292Z,6.77
2018-11-29T00:30:20.707Z,6.80
2018-11-29T00:32:49.551Z,6.80
2018-11-29T00:35:18.507Z,6.84
2018-11-29T00:37:47.028Z,6.81
2018-11-29T00:40:21.554Z,6.57
2018-11-29T00:42:50.081Z,6.79
2018-11-29T00:45:19.640Z,6.77
2018-11-29T00:47:48.670Z,6.79
2018-11-29T00:50:17.839Z,6.80
2018-11-29T00:52:47.414Z,6.81
2018-11-29T00:55:20.025Z,6.85
2018-11-29T00:57:48.475Z,6.69
2018-11-29T01:00:25.633Z,6.75
2018-11-29T01:02:54.772Z,6.75
2018-11-29T01:05:23.607Z,6.78
2018-11-29T01:07:52.117Z,6.78
2018-11-29T01:10:20.752Z,6.80
2018-11-29T01:12:49.603Z,6.78
2018-11-29T01:15:19.019Z,6.87
2018-11-29T01:17:48.772Z,6.86
2018-11-29T01:20:19.967Z,6.89
2018-11-29T01:22:48.461Z,6.93
2018-11-29T01:25:17.344Z,6.90
2018-11-29T01:27:47.078Z,6.95
2018-11-29T01:30:17.583Z,6.93
2018-11-29T01:32:46.216Z,6.79
2018-11-29T01:35:16.889Z,6.61
2018-11-29T01:37:45.381Z,6.66
2018-11-29T01:40:22.492Z,6.79
2018-11-29T01:42:58.034Z,6.72
2018-11-29T01:45:27.705Z,6.87
2018-11-29T01:47:56.182Z,6.83
2018-11-29T01:50:24.633Z,6.79
2018-11-29T01:52:53.234Z,6.62
2018-11-29T01:55:21.784Z,6.73
2018-11-29T01:57:51.429Z,6.54
2018-11-29T02:00:19.972Z,6.65
2018-11-29T02:02:50.985Z,6.55
2018-11-29T02:05:19.549Z,6.66
2018-11-29T02:07:48.153Z,6.56
2018-11-29T02:10:22.190Z,6.70
2018-11-29T02:12:50.762Z,6.64
2018-11-29T02:15:19.423Z,6.73
2018-11-29T02:17:48.055Z,6.60
2018-11-29T02:20:17.494Z,6.47
2018-11-29T02:22:46.596Z,6.43
2018-11-29T02:25:18.868Z,6.46
2018-11-29T02:27:47.337Z,6.28
2018-11-29T02:30:22.693Z,6.51
2018-11-29T02:32:51.756Z,6.43
2018-11-29T02:35:20.537Z,6.21
2018-11-29T02:37:49.107Z,6.18
2018-11-29T02:40:18.169Z,6.26
2018-11-29T02:42:47.412Z,6.17
2018-11-29T02:45:20.762Z,6.05
2018-11-29T02:47:49.241Z,6.10
2018-11-29T02:50:17.713Z,6.20
2018-11-29T02:52:46.260Z,6.15
2018-11-29T02:55:14.873Z,6.14
2018-11-29T02:57:43.409Z,6.10
2018-11-29T03:00:13.906Z,5.99
2018-11-29T03:02:42.583Z,5.95
2018-11-29T03:05:11.195Z,6.11
2018-11-29T03:07:40.621Z,6.13
2018-11-29T03:10:11.037Z,6.04
2018-11-29T03:12:39.705Z,5.97
2018-11-29T03:15:15.330Z,5.96
2018-11-29T03:17:44.365Z,6.03
2018-11-29T03:20:14.537Z,6.08
2018-11-29T03:22:43.158Z,6.05
2018-11-29T03:25:13.809Z,6.06
2018-11-29T03:27:42.341Z,6.05
2018-11-29T03:30:12.635Z,6.05
2018-11-29T03:32:41.254Z,5.90
2018-11-29T03:35:10.674Z,5.72
2018-11-29T03:37:39.330Z,5.77
2018-11-29T03:40:12.924Z,5.85
2018-11-29T03:42:41.523Z,5.86
2018-11-29T03:45:15.696Z,5.85
2018-11-29T03:47:44.486Z,5.86
2018-11-29T03:50:19.549Z,5.86
2018-11-29T03:52:48.138Z,5.85
2018-11-29T03:55:16.653Z,5.83
2018-11-29T03:57:45.151Z,5.77
2018-11-29T04:00:15.439Z,5.79
2018-11-29T04:02:44.665Z,5.58
2018-11-29T04:05:13.098Z,5.59
2018-11-29T04:07:41.733Z,5.58
2018-11-29T04:10:14.009Z,5.60
2018-11-29T04:12:42.646Z,5.71
2018-11-29T04:15:12.192Z,5.67
2018-11-29T04:17:41.369Z,5.73
2018-11-29T04:20:13.400Z,5.75
2018-11-29T04:22:41.912Z,5.70
2018-11-29T04:25:12.706Z,5.70
2018-11-29T04:27:41.206Z,5.71
2018-11-29T04:30:16.671Z,5.72
2018-11-29T04:32:45.676Z,5.70
2018-11-29T04:35:15.578Z,5.64
2018-11-29T04:37:44.121Z,5.56
2018-11-29T04:40:17.460Z,5.60
2018-11-29T04:42:46.136Z,5.64
2018-11-29T04:45:16.198Z,5.50
2018-11-29T04:47:45.115Z,5.47
2018-11-29T04:50:14.130Z,5.57
2018-11-29T04:52:42.609Z,5.61
2018-11-29T04:55:11.707Z,5.57
2018-11-29T04:57:40.179Z,5.57
2018-11-29T05:00:13.331Z,5.57
2018-11-29T05:02:42.225Z,5.61
2018-11-29T05:05:11.274Z,5.61
2018-11-29T05:07:39.790Z,5.62
2018-11-29T05:10:09.905Z,5.66
2018-11-29T05:12:38.398Z,5.61
2018-11-29T05:15:08.874Z,5.60
2018-11-29T05:17:37.369Z,5.58
2018-11-29T05:20:06.237Z,5.65
2018-11-29T05:22:35.495Z,5.60
2018-11-29T05:25:04.318Z,5.52
2018-11-29T05:27:32.778Z,5.44
2018-11-29T05:30:01.414Z,5.47
2018-11-29T05:32:29.991Z,5.44
2018-11-29T05:34:58.509Z,5.42
2018-11-29T05:37:27.506Z,5.39
2018-11-29T05:39:56.178Z,5.31
2018-11-29T05:42:24.658Z,5.30
2018-11-29T05:44:53.249Z,5.30
2018-11-29T05:47:21.834Z,5.22
2018-11-29T05:49:50.439Z,5.18
2018-11-29T05:52:18.916Z,4.98
2018-11-29T05:54:47.475Z,4.87
2018-11-29T05:57:16.888Z,4.84
2018-11-29T05:59:45.697Z,4.91
2018-11-29T06:02:14.240Z,4.92
2018-11-29T06:04:42.743Z,4.96
2018-11-29T06:07:11.263Z,4.97
2018-11-29T06:09:40.164Z,4.86
2018-11-29T06:12:08.788Z,4.80
2018-11-29T06:14:37.468Z,4.83
2018-11-29T06:17:05.987Z,4.81
2018-11-29T06:19:34.443Z,4.76
2018-11-29T06:22:02.990Z,4.75
2018-11-29T06:24:31.532Z,4.62
2018-11-29T06:27:00.071Z,4.65
2018-11-29T06:29:28.652Z,4.71
2018-11-29T06:31:57.282Z,4.67
2018-11-29T06:34:25.764Z,4.62
2018-11-29T06:36:54.549Z,4.53
2018-11-29T06:39:23.093Z,4.55
2018-11-29T06:41:51.690Z,4.51
2018-11-29T06:44:20.133Z,4.50
2018-11-29T06:46:48.657Z,4.43
2018-11-29T06:49:17.184Z,4.35
2018-11-29T06:51:45.718Z,4.31
2018-11-29T06:54:14.201Z,4.25
2018-11-29T06:56:42.730Z,4.08
2018-11-29T06:59:11.253Z,4.07
2018-11-29T07:01:39.778Z,4.17
2018-11-29T07:04:08.540Z,4.29
2018-11-29T07:06:37.177Z,4.32
2018-11-29T07:09:08.214Z,4.29
2018-11-29T07:11:36.780Z,4.31
2018-11-29T07:14:05.550Z,4.33
2018-11-29T07:16:34.082Z,4.30
2018-11-29T07:19:03.122Z,4.33
2018-11-29T07:21:42.834Z,4.20
2018-11-29T07:24:11.666Z,4.35
2018-11-29T07:26:40.157Z,4.43
2018-11-29T07:29:08.711Z,4.52
2018-11-29T07:31:37.338Z,4.60
2018-11-29T07:34:07.053Z,4.65
2018-11-29T07:36:36.698Z,4.66
2018-11-29T07:39:10.703Z,4.67
2018-11-29T07:41:40.005Z,4.66
2018-11-29T07:44:10.471Z,4.82
2018-11-29T07:46:39.031Z,4.87
2018-11-29T07:49:07.585Z,4.96
2018-11-29T07:51:36.186Z,5.15
2018-11-29T07:54:05.014Z,5.27
2018-11-29T07:56:33.548Z,5.29
2018-11-29T07:59:02.203Z,5.08
2018-11-29T08:01:30.648Z,4.86
2018-11-29T08:03:59.236Z,4.73
2018-11-29T08:06:27.702Z,4.72
2018-11-29T08:08:56.258Z,4.82
2018-11-29T08:11:24.739Z,4.77
2018-11-29T08:13:54.164Z,4.87
2018-11-29T08:16:24.588Z,5.29
2018-11-29T08:18:53.129Z,5.44
2018-11-29T08:21:21.587Z,5.64
2018-11-29T08:23:50.149Z,5.82
2018-11-29T08:26:20.632Z,5.83
2018-11-29T08:28:49.127Z,5.93
2018-11-29T08:31:20.001Z,5.77
2018-11-29T08:33:53.116Z,5.44
2018-11-29T08:36:21.716Z,5.56
2018-11-29T08:38:50.206Z,5.55
2018-11-29T08:41:18.935Z,5.50
2018-11-29T08:43:47.529Z,5.83
2018-11-29T08:46:16.297Z,5.99
2018-11-29T08:48:45.745Z,6.12
2018-11-29T08:51:14.335Z,6.25
2018-11-29T08:53:42.821Z,6.27
2018-11-29T08:56:11.322Z,6.38
2018-11-29T08:58:39.814Z,6.61
2018-11-29T09:01:08.319Z,6.67
2018-11-29T09:03:36.937Z,6.25
2018-11-29T09:06:07.041Z,5.99
2018-11-29T09:08:35.874Z,5.95
2018-11-29T09:11:04.986Z,5.66
2018-11-29T09:13:33.445Z,5.97
2018-11-29T09:16:02.101Z,6.06
2018-11-29T09:18:31.070Z,6.52
2018-11-29T09:20:59.582Z,7.03
2018-11-29T09:23:28.101Z,7.31
2018-11-29T09:25:57.323Z,7.61
2018-11-29T09:28:25.766Z,7.73
2018-11-29T09:30:54.273Z,7.91
2018-11-29T09:33:22.927Z,7.73
2018-11-29T09:35:51.406Z,8.30
2018-11-29T09:38:19.950Z,8.31
2018-11-29T09:40:48.470Z,8.04
2018-11-29T09:43:17.686Z,7.95
2018-11-29T09:45:46.182Z,8.45
2018-11-29T09:48:15.159Z,8.17
2018-11-29T09:50:44.374Z,8.13
2018-11-29T09:53:12.905Z,8.23
2018-11-29T09:55:41.527Z,8.36
2018-11-29T09:58:10.065Z,8.39
2018-11-29T10:00:38.626Z,8.25
2018-11-29T10:03:11.665Z,7.90
2018-11-29T10:05:41.106Z,7.31
2018-11-29T10:08:11.952Z,7.73
2018-11-29T10:10:39.690Z,7.29
2018-11-29T10:13:08.707Z,6.98
2018-11-29T10:15:38.220Z,6.80
2018-11-29T10:18:07.186Z,6.86
2018-11-29T10:20:35.678Z,6.95
2018-11-29T10:23:04.195Z,6.90
2018-11-29T10:25:33.317Z,7.85
2018-11-29T10:28:06.661Z,7.69
2018-11-29T10:30:39.044Z,7.60
2018-11-29T10:33:08.092Z,7.57
2018-11-29T10:35:37.411Z,7.38
2018-11-29T10:38:06.072Z,7.18
2018-11-29T10:40:34.601Z,7.08
2018-11-29T10:43:03.061Z,7.20
2018-11-29T10:45:31.537Z,7.76
2018-11-29T10:48:00.043Z,7.34
2018-11-29T10:50:29.297Z,7.47
2018-11-29T10:52:58.368Z,7.71
2018-11-29T10:55:26.893Z,8.01
2018-11-29T10:57:55.511Z,7.88
2018-11-29T11:00:30.236Z,7.58
2018-11-29T11:03:18.957Z,7.60
2018-11-29T11:05:49.703Z,7.34
2018-11-29T11:08:18.396Z,7.33
2018-11-29T11:10:46.943Z,7.57
2018-11-29T11:13:15.526Z,7.62
2018-11-29T11:15:45.018Z,7.54
2018-11-29T11:18:14.628Z,7.43
2018-11-29T11:20:43.184Z,7.68
2018-11-29T11:23:11.799Z,7.64
2018-11-29T11:25:40.458Z,7.54
2018-11-29T11:28:09.890Z,7.58
2018-11-29T11:30:41.221Z,7.39
2018-11-29T11:33:09.708Z,6.99
2018-11-29T11:35:38.326Z,7.22
2018-11-29T11:38:06.922Z,7.17
2018-11-29T11:40:35.506Z,7.21
2018-11-29T11:43:05.396Z,7.15
2018-11-29T11:45:33.173Z,7.11
2018-11-29T11:48:03.429Z,7.23
2018-11-29T11:50:30.270Z,7.38
2018-11-29T11:52:58.832Z,7.36
2018-11-29T11:55:30.230Z,7.32
2018-11-29T11:57:56.203Z,7.54
2018-11-29T12:00:26.796Z,7.30
2018-11-29T12:02:57.487Z,7.15
2018-11-29T12:05:25.982Z,7.06
2018-11-29T12:07:54.558Z,7.16
2018-11-29T12:10:23.101Z,7.21
2018-11-29T12:12:51.934Z,7.24
2018-11-29T12:15:20.426Z,7.45
2018-11-29T12:17:49.093Z,7.43
2018-11-29T12:20:18.753Z,7.14
2018-11-29T12:22:47.364Z,7.03
2018-11-29T12:25:17.702Z,7.31
2018-11-29T12:27:46.184Z,7.30
2018-11-29T12:30:29.850Z,7.32
2018-11-29T12:32:59.803Z,7.16
2018-11-29T12:35:29.504Z,7.19
2018-11-29T12:37:58.075Z,7.45
2018-11-29T12:40:26.611Z,7.39
2018-11-29T12:42:55.147Z,7.57
2018-11-29T12:45:23.656Z,7.38
2018-11-29T12:47:52.264Z,7.46
2018-11-29T12:50:24.107Z,7.48
2018-11-29T12:52:52.809Z,7.61
2018-11-29T12:55:22.178Z,7.60
2018-11-29T12:58:04.706Z,7.76
2018-11-29T13:00:20.189Z,7.89
2018-11-29T13:02:58.490Z,7.88
2018-11-29T13:05:28.140Z,7.97
2018-11-29T13:07:57.012Z,7.85
2018-11-29T13:10:26.779Z,7.76
2018-11-29T13:12:56.924Z,7.61
2018-11-29T13:15:29.501Z,7.88
2018-11-29T13:17:58.813Z,7.90
2018-11-29T13:20:32.324Z,7.84
2018-11-29T13:22:55.991Z,7.81
2018-11-29T13:25:25.773Z,7.67
2018-11-29T13:27:54.967Z,7.76
2018-11-29T13:30:23.897Z,7.58
2018-11-29T13:32:54.742Z,7.56
2018-11-29T13:35:26.646Z,7.79
2018-11-29T13:37:58.175Z,7.75
2018-11-29T13:40:27.231Z,7.81
2018-11-29T13:42:55.758Z,7.79
2018-11-29T13:45:24.440Z,7.74
2018-11-29T13:47:52.853Z,7.86
2018-11-29T13:50:21.429Z,7.84
2018-11-29T13:52:49.937Z,7.84
2018-11-29T13:55:18.635Z,7.90
2018-11-29T13:57:49.553Z,7.55
2018-11-29T14:00:19.986Z,7.57
2018-11-29T14:02:50.568Z,7.63
2018-11-29T14:05:19.552Z,7.37
2018-11-29T14:07:48.053Z,7.61
2018-11-29T14:10:18.637Z,7.45
2018-11-29T14:12:48.302Z,7.54
2018-11-29T14:15:19.182Z,7.60
2018-11-29T14:17:47.652Z,7.59
2018-11-29T14:20:16.261Z,7.55
2018-11-29T14:22:44.808Z,7.61
2018-11-29T14:25:14.407Z,7.60
2018-11-29T14:27:45.377Z,7.62
2018-11-29T14:30:17.691Z,7.57
2018-11-29T14:32:46.616Z,7.61
2018-11-29T14:35:16.077Z,7.62
2018-11-29T14:37:44.736Z,7.52
2018-11-29T14:40:14.548Z,7.53
2018-11-29T14:42:43.053Z,7.43
2018-11-29T14:45:12.508Z,7.38
2018-11-29T14:47:41.169Z,7.41
2018-11-29T14:50:17.843Z,7.46
2018-11-29T14:52:46.412Z,7.30
2018-11-29T14:55:15.228Z,7.28
2018-11-29T14:57:43.769Z,7.21
2018-11-29T15:00:13.289Z,7.19
2018-11-29T15:02:41.975Z,7.26
2018-11-29T15:05:14.150Z,7.04
2018-11-29T15:07:42.680Z,6.77
2018-11-29T15:10:11.438Z,6.86
2018-11-29T15:12:40.118Z,6.87
2018-11-29T15:15:10.866Z,6.90
2018-11-29T15:17:40.593Z,6.94
2018-11-29T15:20:13.549Z,6.96
2018-11-29T15:22:42.319Z,6.72
2018-11-29T15:25:11.040Z,6.80
2018-11-29T15:27:39.551Z,6.79
2018-11-29T15:30:14.479Z,6.77
2018-11-29T15:32:42.949Z,6.68
2018-11-29T15:35:12.234Z,6.71
2018-11-29T15:37:40.959Z,6.73
2018-11-29T15:40:11.056Z,6.55
2018-11-29T15:42:40.481Z,6.54
2018-11-29T15:45:11.667Z,6.46
2018-11-29T15:47:40.196Z,6.47
2018-11-29T15:50:11.323Z,6.44
2018-11-29T15:52:39.821Z,6.43
2018-11-29T15:55:14.427Z,6.43
2018-11-29T15:57:42.943Z,6.42
2018-11-29T16:00:17.625Z,6.41
2018-11-29T16:02:48.247Z,6.30
2018-11-29T16:05:18.368Z,6.26
2018-11-29T16:07:46.946Z,6.20
2018-11-29T16:10:19.650Z,6.12
2018-11-29T16:12:48.442Z,5.96
2018-11-29T16:15:19.025Z,5.87
2018-11-29T16:17:48.304Z,1.65
2018-11-29T16:20:19.360Z,5.85
2018-11-29T16:22:47.978Z,5.74
2018-11-29T16:25:16.749Z,5.77
2018-11-29T16:27:45.329Z,6.01
2018-11-29T16:30:26.532Z,5.82
2018-11-29T16:32:56.066Z,5.68
2018-11-29T16:35:25.197Z,5.58
2018-11-29T16:37:54.545Z,5.53
2018-11-29T16:40:23.973Z,5.29
2018-11-29T16:42:52.498Z,5.31
2018-11-29T16:45:22.193Z,5.34
2018-11-29T16:47:51.744Z,5.31
2018-11-29T16:50:20.501Z,5.29
2018-11-29T16:52:49.075Z,5.25
2018-11-29T16:55:17.639Z,5.20
2018-11-29T16:57:48.594Z,4.99
2018-11-29T17:00:20.187Z,5.09
2018-11-29T17:02:48.810Z,5.09
2018-11-29T17:05:17.866Z,5.00
2018-11-29T17:07:47.620Z,4.67
2018-11-29T17:10:17.316Z,4.78
2018-11-29T17:12:50.783Z,4.87
2018-11-29T17:15:20.507Z,4.83
2018-11-29T17:17:49.060Z,4.72
2018-11-29T17:20:18.626Z,4.62
2018-11-29T17:22:48.242Z,4.41
2018-11-29T17:25:16.830Z,4.63
2018-11-29T17:27:45.300Z,4.70
2018-11-29T17:30:18.242Z,4.69
2018-11-29T17:32:46.906Z,4.68
2018-11-29T17:35:15.383Z,4.76
2018-11-29T17:37:43.935Z,4.69
2018-11-29T17:40:14.478Z,4.67
2018-11-29T17:42:43.206Z,4.56
2018-11-29T17:45:14.161Z,4.59
2018-11-29T17:47:43.649Z,4.65
2018-11-29T17:50:46.047Z,4.63
2018-11-29T17:53:14.688Z,4.65
2018-11-29T17:55:43.722Z,4.37
2018-11-29T17:58:14.785Z,4.35
2018-11-29T18:00:44.909Z,4.20
2018-11-29T18:03:15.516Z,4.33
2018-11-29T18:05:44.117Z,4.14
2018-11-29T18:08:12.633Z,4.20
2018-11-29T18:10:41.889Z,4.06
2018-11-29T18:13:19.486Z,4.04
2018-11-29T18:15:48.050Z,3.86
2018-11-29T18:18:16.528Z,3.91
2018-11-29T18:20:45.129Z,4.17
2018-11-29T18:23:14.199Z,4.00
2018-11-29T18:25:42.816Z,4.30
2018-11-29T18:28:11.975Z,4.45
2018-11-29T18:30:41.113Z,4.42
2018-11-29T18:33:09.705Z,4.08
2018-11-29T18:35:39.722Z,4.03
2018-11-29T18:38:08.552Z,4.40
2018-11-29T18:40:37.249Z,4.47
2018-11-29T18:43:07.617Z,3.97
2018-11-29T18:45:36.250Z,3.76
2018-11-29T18:48:04.883Z,3.77
2018-11-29T18:50:34.396Z,4.04
2018-11-29T18:53:03.022Z,3.99
2018-11-29T18:55:31.813Z,3.81
2018-11-29T18:58:00.502Z,3.99
2018-11-29T19:00:32.446Z,4.14
2018-11-29T19:03:01.014Z,3.86
2018-11-29T19:05:29.634Z,3.93
2018-11-29T19:07:58.196Z,4.19
2018-11-29T19:10:26.904Z,3.75
2018-11-29T19:13:06.780Z,3.70
2018-11-29T19:15:36.153Z,3.53
2018-11-29T19:18:10.297Z,3.57
2018-11-29T19:20:34.756Z,3.63
2018-11-29T19:23:04.250Z,3.68
2018-11-29T19:25:32.915Z,3.48
2018-11-29T19:28:01.460Z,3.47
2018-11-29T19:30:31.872Z,3.32
2018-11-29T19:33:06.033Z,3.26
2018-11-29T19:35:35.524Z,3.23
2018-11-29T19:38:05.631Z,3.26
2018-11-29T19:40:34.221Z,3.18
2018-11-29T19:43:05.532Z,3.38
2018-11-29T19:45:34.173Z,3.20
2018-11-29T19:48:04.104Z,3.30
2018-11-29T19:50:33.097Z,3.19
2018-11-29T19:53:02.608Z,3.29
2018-11-29T19:55:32.951Z,3.47
2018-11-29T19:58:02.301Z,3.15
2018-11-29T20:00:31.779Z,3.51
2018-11-29T20:03:01.111Z,3.67
2018-11-29T20:05:30.398Z,2.90
2018-11-29T20:07:59.190Z,3.13
2018-11-29T20:10:28.711Z,3.29
2018-11-29T20:13:02.803Z,3.49
2018-11-29T20:15:33.200Z,3.64
2018-11-29T20:18:02.528Z,3.57
2018-11-29T20:20:31.266Z,3.53
2018-11-29T20:23:00.171Z,3.54
2018-11-29T20:25:29.556Z,3.44
2018-11-29T20:27:58.215Z,3.26
2018-11-29T20:30:26.863Z,3.73
2018-11-29T20:32:56.421Z,3.44
2018-11-29T20:35:25.064Z,3.41
2018-11-29T20:37:54.315Z,3.43
2018-11-29T20:40:28.945Z,3.31
2018-11-29T20:42:58.889Z,3.44
2018-11-29T20:45:38.010Z,3.29
2018-11-29T20:48:18.294Z,3.42
2018-11-29T20:50:47.493Z,3.53
2018-11-29T20:53:18.103Z,3.68
2018-11-29T20:55:47.326Z,3.72
2018-11-29T20:58:16.462Z,3.78
2018-11-29T21:00:45.141Z,3.68
2018-11-29T21:03:13.812Z,3.66
2018-11-29T21:05:43.237Z,3.12
2018-11-29T21:08:12.584Z,2.93
2018-11-29T21:10:41.289Z,3.22
2018-11-29T21:13:09.893Z,3.37
2018-11-29T21:15:40.666Z,3.23
2018-11-29T21:18:11.485Z,3.10
2018-11-29T21:20:41.542Z,2.95
2018-11-29T21:23:11.779Z,2.97
2018-11-29T21:25:40.548Z,3.07
2018-11-29T21:28:09.192Z,3.17
2018-11-29T21:30:38.487Z,3.36
2018-11-29T21:33:07.788Z,3.39
2018-11-29T21:35:36.398Z,3.47
2018-11-29T21:38:12.386Z,3.59
2018-11-29T21:40:42.406Z,3.44
2018-11-29T21:43:11.688Z,3.48
2018-11-29T21:45:40.784Z,3.60
2018-11-29T21:48:09.382Z,3.47
2018-11-29T21:50:38.546Z,3.30
2018-11-29T21:53:07.315Z,3.48
2018-11-29T21:55:36.145Z,3.60
2018-11-29T21:58:04.709Z,3.65
2018-11-29T22:00:33.522Z,3.67
2018-11-29T22:03:02.141Z,3.47
2018-11-29T22:05:30.843Z,3.10
2018-11-29T22:07:59.457Z,2.85
2018-11-29T22:10:28.008Z,2.72
2018-11-29T22:12:57.199Z,2.71
2018-11-29T22:15:27.018Z,2.77
2018-11-29T22:18:02.756Z,2.57
2018-11-29T22:20:31.725Z,2.57
2018-11-29T22:23:00.352Z,2.70
2018-11-29T22:25:29.359Z,2.44
2018-11-29T22:27:58.853Z,2.72
2018-11-29T22:30:27.565Z,2.57
2018-11-29T22:32:56.106Z,2.48
2018-11-29T22:35:25.114Z,2.35
2018-11-29T22:37:53.664Z,2.51
2018-11-29T22:40:22.291Z,2.60
2018-11-29T22:42:50.962Z,2.74
2018-11-29T22:45:22.147Z,2.92
2018-11-29T22:47:50.813Z,3.03
2018-11-29T22:50:33.090Z,2.76
2018-11-29T22:53:12.461Z,2.65
2018-11-29T22:55:42.871Z,2.89
2018-11-29T22:58:11.418Z,2.90
2018-11-29T23:00:45.370Z,2.98
2018-11-29T23:03:14.276Z,3.14
2018-11-29T23:05:43.785Z,3.01
2018-11-29T23:08:13.001Z,2.91
2018-11-29T23:11:12.449Z,3.09
2018-11-29T23:13:40.995Z,2.81
2018-11-29T23:16:09.725Z,2.94
2018-11-29T23:18:38.330Z,2.88
2018-11-29T23:21:07.039Z,3.05
2018-11-29T23:23:35.853Z,3.17
2018-11-29T23:26:04.421Z,3.19
2018-11-29T23:28:33.235Z,3.18
2018-11-29T23:31:01.898Z,3.32
2018-11-29T23:33:30.539Z,3.36
2018-11-29T23:35:59.193Z,3.42
2018-11-29T23:38:27.808Z,3.34
2018-11-29T23:40:57.026Z,3.67
2018-11-29T23:43:25.960Z,3.65
2018-11-29T23:45:54.731Z,3.46
2018-11-29T23:48:23.477Z,3.66
2018-11-29T23:50:52.171Z,3.84
2018-11-29T23:53:20.808Z,3.75
2018-11-29T23:55:49.433Z,3.87
2018-11-29T23:58:18.001Z,3.72
